createdAt,value
2022-08-17T00:00:01.572Z,59.31
2022-08-17T00:02:29.231Z,59.30
2022-08-17T00:04:58.018Z,60.38
2022-08-17T00:07:24.871Z,59.51
2022-08-17T00:09:51.842Z,60.08
2022-08-17T00:12:41.675Z,59.65
2022-08-17T00:15:10.754Z,59.58
2022-08-17T00:17:38.367Z,59.79
2022-08-17T00:20:06.424Z,59.44
2022-08-17T00:22:36.563Z,58.96
2022-08-17T00:25:14.146Z,57.74
2022-08-17T00:27:41.462Z,57.70
2022-08-17T00:30:11.728Z,57.61
2022-08-17T00:33:11.855Z,57.71
2022-08-17T00:35:34.957Z,57.16
2022-08-17T00:38:01.891Z,57.53
2022-08-17T00:40:40.015Z,57.33
2022-08-17T00:43:41.479Z,57.75
2022-08-17T00:46:26.403Z,57.12
2022-08-17T00:48:53.296Z,57.01
2022-08-17T00:51:44.804Z,57.44
2022-08-17T00:54:41.927Z,57.42
2022-08-17T00:57:16.509Z,58.07
2022-08-17T01:00:02.415Z,58.24
2022-08-17T01:02:42.222Z,58.38
2022-08-17T01:05:18.569Z,58.13
2022-08-17T01:07:48.114Z,57.90
2022-08-17T01:10:58.995Z,58.02
2022-08-17T01:13:05.081Z,57.86
2022-08-17T01:15:37.352Z,57.64
2022-08-17T01:18:11.387Z,57.69
2022-08-17T01:20:48.966Z,58.00
2022-08-17T01:23:20.641Z,58.56
2022-08-17T01:25:56.279Z,58.09
2022-08-17T01:28:36.498Z,58.10
2022-08-17T01:31:13.637Z,57.91
2022-08-17T01:33:41.547Z,57.92
2022-08-17T01:36:09.244Z,58.08
2022-08-17T01:38:38.447Z,58.02
2022-08-17T01:41:16.468Z,57.81
2022-08-17T01:44:05.571Z,58.08
2022-08-17T01:46:37.431Z,57.87
2022-08-17T01:49:11.431Z,58.07
2022-08-17T01:51:39.371Z,58.02
2022-08-17T01:54:12.800Z,58.43
2022-08-17T01:56:47.398Z,58.33
2022-08-17T01:59:16.834Z,57.57
2022-08-17T02:01:44.887Z,57.84
2022-08-17T02:04:13.629Z,57.70
2022-08-17T02:06:52.959Z,57.71
2022-08-17T02:09:29.944Z,57.78
2022-08-17T02:11:59.947Z,57.71
2022-08-17T02:14:46.813Z,57.97
2022-08-17T02:17:13.989Z,57.70
2022-08-17T02:19:41.218Z,57.56
2022-08-17T02:22:08.626Z,57.53
2022-08-17T02:24:59.634Z,57.74
2022-08-17T02:27:24.831Z,57.41
2022-08-17T02:29:51.953Z,57.86
2022-08-17T02:32:27.975Z,57.98
2022-08-17T02:35:01.359Z,58.07
2022-08-17T02:37:29.871Z,58.24
2022-08-17T02:39:58.509Z,58.77
2022-08-17T02:42:31.508Z,58.68
2022-08-17T02:44:59.063Z,58.69
2022-08-17T02:47:26.843Z,58.61
2022-08-17T02:49:55.733Z,58.36
2022-08-17T02:52:42.926Z,58.13
2022-08-17T02:55:36.165Z,58.27
2022-08-17T02:58:03.680Z,58.19
2022-08-17T03:00:38.272Z,58.13
2022-08-17T03:03:06.238Z,58.09
2022-08-17T03:05:36.328Z,57.71
2022-08-17T03:08:05.216Z,57.97
2022-08-17T03:10:32.235Z,57.95
2022-08-17T03:12:59.701Z,58.25
2022-08-17T03:15:31.479Z,57.80
2022-08-17T03:17:59.924Z,57.67
2022-08-17T03:20:30.147Z,57.66
2022-08-17T03:23:01.807Z,57.36
2022-08-17T03:25:38.675Z,57.75
2022-08-17T03:28:06.423Z,57.74
2022-08-17T03:30:34.852Z,57.47
2022-08-17T03:33:04.724Z,57.76
2022-08-17T03:35:34.796Z,58.00
2022-08-17T03:38:01.769Z,57.63
2022-08-17T03:40:34.465Z,57.47
2022-08-17T03:43:19.059Z,57.96
2022-08-17T03:46:04.313Z,58.02
2022-08-17T03:48:51.337Z,58.25
2022-08-17T03:51:41.852Z,58.28
2022-08-17T03:54:29.013Z,58.52
2022-08-17T03:57:09.462Z,58.90
2022-08-17T03:59:37.806Z,59.51
2022-08-17T04:02:11.125Z,59.30
2022-08-17T04:04:39.024Z,59.28
2022-08-17T04:07:06.864Z,59.14
2022-08-17T04:09:34.037Z,59.64
2022-08-17T04:12:04.519Z,59.64
2022-08-17T04:14:39.352Z,59.48
2022-08-17T04:17:28.526Z,60.35
2022-08-17T04:19:56.392Z,60.47
2022-08-17T04:22:32.789Z,61.55
2022-08-17T04:25:06.285Z,60.97
2022-08-17T04:27:33.366Z,61.01
2022-08-17T04:30:00.940Z,60.73
2022-08-17T04:33:03.436Z,60.41
2022-08-17T04:35:20.190Z,60.33
2022-08-17T04:37:47.407Z,60.53
2022-08-17T04:40:32.668Z,60.32
2022-08-17T04:43:05.479Z,59.79
2022-08-17T04:45:33.076Z,59.80
2022-08-17T04:48:01.431Z,59.41
2022-08-17T04:50:28.418Z,59.48
2022-08-17T04:52:55.669Z,59.74
2022-08-17T04:55:22.927Z,59.75
2022-08-17T04:57:49.801Z,59.49
2022-08-17T05:00:16.864Z,59.46
2022-08-17T05:02:51.014Z,59.47
2022-08-17T05:05:40.177Z,59.65
2022-08-17T05:08:07.894Z,59.59
2022-08-17T05:10:37.481Z,59.46
2022-08-17T05:13:25.404Z,58.80
2022-08-17T05:15:59.874Z,58.25
2022-08-17T05:18:29.593Z,58.01
2022-08-17T05:20:57.320Z,57.93
2022-08-17T05:23:27.117Z,57.59
2022-08-17T05:26:04.094Z,57.84
2022-08-17T05:28:34.666Z,57.97
2022-08-17T05:31:03.726Z,58.01
2022-08-17T05:33:36.496Z,57.55
2022-08-17T05:36:09.164Z,57.32
2022-08-17T05:38:56.130Z,57.54
2022-08-17T05:41:23.101Z,57.28
2022-08-17T05:43:54.297Z,55.84
2022-08-17T05:46:27.836Z,55.71
2022-08-17T05:49:08.026Z,54.41
2022-08-17T05:51:55.712Z,53.52
2022-08-17T05:54:48.965Z,51.94
2022-08-17T05:57:43.550Z,50.79
2022-08-17T06:00:37.343Z,49.28
2022-08-17T06:03:30.080Z,50.48
2022-08-17T06:06:33.631Z,51.93
2022-08-17T06:09:30.107Z,53.34
2022-08-17T06:12:37.314Z,54.69
2022-08-17T06:15:26.226Z,54.83
2022-08-17T06:18:00.101Z,54.93
2022-08-17T06:20:36.095Z,55.37
2022-08-17T06:23:14.361Z,55.34
2022-08-17T06:25:48.831Z,55.44
2022-08-17T06:28:37.108Z,54.86
2022-08-17T06:31:15.334Z,54.75
2022-08-17T06:33:46.305Z,54.21
2022-08-17T06:37:03.624Z,55.25
2022-08-17T06:40:21.440Z,54.90
2022-08-17T06:43:13.608Z,55.47
2022-08-17T06:46:11.410Z,56.45
2022-08-17T06:48:57.870Z,56.16
2022-08-17T06:51:39.530Z,57.57
2022-08-17T06:54:20.554Z,57.61
2022-08-17T06:57:02.463Z,57.99
2022-08-17T06:59:54.936Z,57.37
2022-08-17T07:02:51.240Z,57.91
2022-08-17T07:05:34.365Z,57.85
2022-08-17T07:08:38.288Z,59.11
2022-08-17T07:11:48.274Z,60.16
2022-08-17T07:14:44.442Z,63.04
2022-08-17T07:17:15.856Z,63.84
2022-08-17T07:19:46.065Z,64.61
2022-08-17T07:22:59.554Z,63.48
2022-08-17T07:25:28.513Z,63.22
2022-08-17T07:28:00.190Z,63.51
2022-08-17T07:30:47.110Z,63.01
2022-08-17T07:33:20.275Z,61.63
2022-08-17T07:35:49.776Z,61.63
2022-08-17T07:38:24.800Z,61.63
2022-08-17T07:41:01.865Z,60.61
2022-08-17T07:43:39.813Z,61.29
2022-08-17T07:46:40.734Z,61.87
2022-08-17T07:49:10.371Z,62.33
2022-08-17T07:51:43.164Z,62.44
2022-08-17T07:54:15.557Z,63.41
2022-08-17T07:57:12.104Z,62.85
2022-08-17T08:00:12.682Z,62.67
2022-08-17T08:02:47.520Z,62.80
2022-08-17T08:05:44.316Z,60.79
2022-08-17T08:08:42.148Z,60.45
2022-08-17T08:11:15.729Z,61.52
2022-08-17T08:13:45.541Z,61.13
2022-08-17T08:16:21.983Z,61.26
2022-08-17T08:18:56.735Z,62.09
2022-08-17T08:21:52.100Z,62.98
2022-08-17T08:24:52.386Z,62.11
2022-08-17T08:27:34.036Z,62.04
2022-08-17T08:30:15.387Z,62.16
2022-08-17T08:33:29.973Z,61.80
2022-08-17T08:37:14.295Z,62.04
2022-08-17T08:39:56.884Z,61.64
2022-08-17T08:42:52.198Z,60.63
2022-08-17T08:46:01.753Z,59.86
2022-08-17T08:49:10.362Z,60.19
2022-08-17T08:52:00.582Z,60.29
2022-08-17T08:54:38.665Z,59.15
2022-08-17T08:57:26.739Z,59.02
2022-08-17T09:00:15.076Z,57.59
2022-08-17T09:03:02.543Z,57.94
2022-08-17T09:06:37.799Z,57.57
2022-08-17T09:09:29.191Z,57.42
2022-08-17T09:12:25.941Z,56.41
2022-08-17T09:15:13.100Z,55.42
2022-08-17T09:19:01.391Z,55.15
2022-08-17T09:21:01.622Z,54.46
2022-08-17T09:23:39.247Z,54.02
2022-08-17T09:26:25.690Z,54.12
2022-08-17T09:29:01.659Z,54.17
2022-08-17T09:32:03.502Z,53.83
2022-08-17T09:34:50.017Z,52.96
2022-08-17T09:37:29.737Z,53.01
2022-08-17T09:40:12.270Z,53.03
2022-08-17T09:43:09.840Z,52.84
2022-08-17T09:45:57.246Z,52.29
2022-08-17T09:48:50.160Z,52.41
2022-08-17T09:51:37.118Z,53.07
2022-08-17T09:54:37.992Z,53.59
2022-08-17T09:57:31.472Z,53.44
2022-08-17T10:00:11.269Z,53.67
2022-08-17T10:03:34.458Z,54.45
2022-08-17T10:06:22.091Z,55.97
2022-08-17T10:09:42.801Z,56.36
2022-08-17T10:12:30.171Z,58.48
2022-08-17T10:15:15.999Z,59.90
2022-08-17T10:18:08.949Z,61.21
2022-08-17T10:21:21.848Z,61.68
2022-08-17T10:24:25.007Z,62.38
2022-08-17T10:26:56.675Z,63.85
2022-08-17T10:29:51.565Z,63.29
2022-08-17T10:32:41.384Z,63.95
2022-08-17T10:35:39.051Z,63.34
2022-08-17T10:38:37.196Z,63.14
2022-08-17T10:41:29.438Z,62.75
2022-08-17T10:44:38.119Z,62.24
2022-08-17T10:47:15.032Z,61.65
2022-08-17T10:49:53.434Z,60.36
2022-08-17T10:52:20.199Z,59.94
2022-08-17T10:54:51.884Z,59.53
2022-08-17T10:57:33.915Z,58.58
2022-08-17T11:00:35.081Z,58.12
2022-08-17T11:03:02.523Z,57.77
2022-08-17T11:05:59.717Z,55.26
2022-08-17T11:08:52.537Z,55.17
2022-08-17T11:11:40.451Z,54.58
2022-08-17T11:14:57.933Z,54.10
2022-08-17T11:17:27.486Z,52.45
2022-08-17T11:20:20.079Z,51.38
2022-08-17T11:23:14.591Z,50.01
2022-08-17T11:25:50.344Z,49.32
2022-08-17T11:28:23.410Z,49.72
2022-08-17T11:30:58.857Z,49.31
2022-08-17T11:33:29.998Z,49.96
2022-08-17T11:36:31.530Z,50.66
2022-08-17T11:39:15.925Z,49.32
2022-08-17T11:42:11.807Z,49.17
2022-08-17T11:45:32.336Z,49.85
2022-08-17T11:48:48.310Z,49.29
2022-08-17T11:51:35.809Z,50.54
2022-08-17T11:54:34.164Z,51.99
2022-08-17T11:57:26.949Z,52.16
2022-08-17T12:00:10.804Z,51.44
2022-08-17T12:02:48.846Z,51.17
2022-08-17T12:05:19.333Z,50.50
2022-08-17T12:07:52.619Z,51.16
2022-08-17T12:10:31.825Z,51.44
2022-08-17T12:13:15.907Z,51.68
2022-08-17T12:15:49.923Z,52.24
2022-08-17T12:18:35.483Z,51.99
2022-08-17T12:21:25.343Z,51.42
2022-08-17T12:24:06.696Z,51.13
2022-08-17T12:26:36.759Z,51.62
2022-08-17T12:29:18.240Z,50.99
2022-08-17T12:32:03.107Z,50.83
2022-08-17T12:34:40.531Z,50.88
2022-08-17T12:37:23.133Z,51.60
2022-08-17T12:39:59.360Z,51.32
2022-08-17T12:42:37.389Z,51.25
2022-08-17T12:45:23.353Z,51.15
2022-08-17T12:48:07.793Z,51.60
2022-08-17T12:50:45.029Z,51.72
2022-08-17T12:53:16.203Z,51.98
2022-08-17T12:55:44.309Z,51.92
2022-08-17T12:58:14.659Z,51.25
2022-08-17T13:00:49.702Z,51.19
2022-08-17T13:03:22.737Z,50.30
2022-08-17T13:05:52.548Z,48.98
2022-08-17T13:08:30.539Z,49.08
2022-08-17T13:11:09.336Z,47.96
2022-08-17T13:13:49.023Z,46.90
2022-08-17T13:16:28.050Z,46.87
2022-08-17T13:19:08.583Z,46.79
2022-08-17T13:21:37.930Z,46.93
2022-08-17T13:24:16.583Z,46.32
2022-08-17T13:27:01.575Z,46.31
2022-08-17T13:29:45.739Z,46.14
2022-08-17T13:32:43.662Z,45.65
2022-08-17T13:35:43.615Z,46.60
2022-08-17T13:38:49.466Z,46.96
2022-08-17T13:41:37.850Z,47.54
2022-08-17T13:44:31.551Z,47.67
2022-08-17T13:46:59.611Z,47.50
2022-08-17T13:49:41.507Z,47.20
2022-08-17T13:52:40.187Z,46.75
2022-08-17T13:55:22.782Z,47.60
2022-08-17T13:58:03.589Z,47.96
2022-08-17T14:00:36.695Z,48.25
2022-08-17T14:03:05.715Z,48.52
2022-08-17T14:05:33.793Z,47.79
2022-08-17T14:08:06.995Z,47.76
2022-08-17T14:10:36.327Z,47.80
2022-08-17T14:13:04.623Z,46.32
2022-08-17T14:15:54.601Z,46.15
2022-08-17T14:18:35.611Z,46.73
2022-08-17T14:21:08.372Z,46.50
2022-08-17T14:23:36.881Z,46.89
2022-08-17T14:26:04.702Z,46.29
2022-08-17T14:28:32.052Z,46.12
2022-08-17T14:31:01.116Z,46.50
2022-08-17T14:33:29.007Z,45.39
2022-08-17T14:35:57.558Z,45.73
2022-08-17T14:38:24.828Z,45.55
2022-08-17T14:40:52.411Z,45.77
2022-08-17T14:43:20.398Z,46.22
2022-08-17T14:45:47.501Z,46.58
2022-08-17T14:48:14.476Z,45.33
2022-08-17T14:50:42.754Z,45.29
2022-08-17T14:53:13.821Z,45.42
2022-08-17T14:55:40.967Z,45.00
2022-08-17T14:58:09.078Z,44.13
2022-08-17T15:00:37.437Z,44.93
2022-08-17T15:03:05.307Z,44.02
2022-08-17T15:05:36.508Z,44.04
2022-08-17T15:08:05.413Z,43.91
2022-08-17T15:10:32.656Z,42.92
2022-08-17T15:13:00.386Z,42.60
2022-08-17T15:15:28.709Z,41.50
2022-08-17T15:17:56.253Z,41.13
2022-08-17T15:20:28.080Z,40.91
2022-08-17T15:22:57.486Z,41.06
2022-08-17T15:25:27.677Z,41.79
2022-08-17T15:27:55.842Z,41.09
2022-08-17T15:30:23.710Z,39.71
2022-08-17T15:32:54.269Z,40.47
2022-08-17T15:35:27.514Z,40.60
2022-08-17T15:38:10.790Z,40.83
2022-08-17T15:40:44.838Z,41.07
2022-08-17T15:43:24.790Z,41.21
2022-08-17T15:46:14.332Z,41.29
2022-08-17T15:48:44.464Z,41.51
2022-08-17T15:51:17.952Z,41.44
2022-08-17T15:54:04.610Z,41.75
2022-08-17T15:56:46.240Z,41.12
2022-08-17T15:59:13.253Z,40.83
2022-08-17T16:02:33.627Z,41.13
2022-08-17T16:04:30.918Z,41.09
2022-08-17T16:06:59.730Z,41.43
2022-08-17T16:09:27.502Z,40.93
2022-08-17T16:11:55.883Z,40.62
2022-08-17T16:14:33.654Z,40.27
2022-08-17T16:17:03.490Z,40.33
2022-08-17T16:19:30.907Z,40.10
2022-08-17T16:21:57.995Z,40.48
2022-08-17T16:24:25.298Z,40.27
2022-08-17T16:26:52.147Z,40.45
2022-08-17T16:29:19.051Z,40.33
2022-08-17T16:31:45.901Z,39.98
2022-08-17T16:34:17.044Z,38.68
2022-08-17T16:36:54.869Z,38.93
2022-08-17T16:39:27.598Z,38.40
2022-08-17T16:41:55.945Z,38.80
2022-08-17T16:44:23.143Z,37.57
2022-08-17T16:46:50.527Z,37.98
2022-08-17T16:49:35.658Z,37.71
2022-08-17T16:52:07.730Z,37.52
2022-08-17T16:54:35.415Z,37.37
2022-08-17T16:57:04.903Z,37.99
2022-08-17T16:59:40.800Z,38.00
2022-08-17T17:02:13.781Z,37.73
2022-08-17T17:04:50.329Z,38.83
2022-08-17T17:07:37.512Z,39.57
2022-08-17T17:10:17.284Z,39.26
2022-08-17T17:13:02.745Z,39.40
2022-08-17T17:15:51.886Z,39.54
2022-08-17T17:18:28.439Z,39.66
2022-08-17T17:20:57.399Z,39.35
2022-08-17T17:23:39.764Z,39.51
2022-08-17T17:26:43.176Z,40.15
2022-08-17T17:29:20.474Z,40.37
2022-08-17T17:32:13.561Z,41.07
2022-08-17T17:35:00.040Z,41.43
2022-08-17T17:37:33.533Z,40.79
2022-08-17T17:40:29.045Z,41.03
2022-08-17T17:43:09.476Z,41.94
2022-08-17T17:45:47.548Z,41.31
2022-08-17T17:48:14.398Z,41.33
2022-08-17T17:51:09.858Z,41.80
2022-08-17T17:53:51.744Z,41.32
2022-08-17T17:56:43.248Z,41.73
2022-08-17T17:59:41.845Z,41.89
2022-08-17T18:02:52.241Z,41.92
2022-08-17T18:05:37.340Z,42.03
2022-08-17T18:08:14.110Z,42.46
2022-08-17T18:10:55.649Z,43.15
2022-08-17T18:14:02.989Z,42.88
2022-08-17T18:16:32.917Z,43.14
2022-08-17T18:19:00.434Z,42.72
2022-08-17T18:21:44.344Z,42.97
2022-08-17T18:24:12.598Z,43.18
2022-08-17T18:26:55.487Z,43.50
2022-08-17T18:29:34.448Z,43.44
2022-08-17T18:32:31.837Z,43.88
2022-08-17T18:35:10.754Z,43.92
2022-08-17T18:38:20.394Z,43.73
2022-08-17T18:41:02.941Z,44.19
2022-08-17T18:43:53.210Z,44.49
2022-08-17T18:46:36.709Z,44.54
2022-08-17T18:49:28.732Z,44.71
2022-08-17T18:52:30.567Z,44.50
2022-08-17T18:55:24.125Z,44.89
2022-08-17T18:57:56.193Z,45.07
2022-08-17T19:00:43.824Z,45.21
2022-08-17T19:03:17.847Z,45.13
2022-08-17T19:05:53.080Z,45.25
2022-08-17T19:08:29.006Z,45.62
2022-08-17T19:10:59.793Z,45.81
2022-08-17T19:13:47.454Z,46.44
2022-08-17T19:16:51.319Z,46.14
2022-08-17T19:19:46.548Z,46.25
2022-08-17T19:22:31.008Z,46.14
2022-08-17T19:25:12.646Z,46.46
2022-08-17T19:28:04.011Z,46.33
2022-08-17T19:30:39.501Z,46.58
2022-08-17T19:33:10.496Z,46.72
2022-08-17T19:36:10.565Z,46.58
2022-08-17T19:39:17.413Z,46.69
2022-08-17T19:42:28.361Z,46.96
2022-08-17T19:45:08.577Z,47.08
2022-08-17T19:48:04.327Z,47.55
2022-08-17T19:50:50.459Z,47.49
2022-08-17T19:53:54.145Z,47.31
2022-08-17T19:56:57.863Z,47.07
2022-08-17T19:59:37.458Z,47.37
2022-08-17T20:02:22.761Z,48.05
2022-08-17T20:04:53.499Z,48.29
2022-08-17T20:07:46.447Z,48.34
2022-08-17T20:10:48.102Z,48.66
2022-08-17T20:13:33.673Z,49.31
2022-08-17T20:16:02.998Z,49.11
2022-08-17T20:19:03.971Z,49.47
2022-08-17T20:21:54.384Z,49.44
2022-08-17T20:24:37.179Z,49.50
2022-08-17T20:27:31.297Z,49.28
2022-08-17T20:30:06.236Z,49.70
2022-08-17T20:32:55.532Z,49.91
2022-08-17T20:36:11.181Z,50.37
2022-08-17T20:38:44.824Z,50.53
2022-08-17T20:41:28.119Z,50.42
2022-08-17T20:43:58.705Z,50.19
2022-08-17T20:46:37.529Z,50.56
2022-08-17T20:49:41.221Z,51.05
2022-08-17T20:52:35.451Z,50.57
2022-08-17T20:55:04.474Z,50.72
2022-08-17T20:57:31.561Z,50.94
2022-08-17T21:00:17.492Z,51.15
2022-08-17T21:02:49.519Z,50.95
2022-08-17T21:06:17.054Z,51.69
2022-08-17T21:08:57.824Z,51.38
2022-08-17T21:11:56.793Z,51.74
2022-08-17T21:14:40.189Z,52.41
2022-08-17T21:17:18.773Z,52.40
2022-08-17T21:20:22.792Z,52.22
2022-08-17T21:23:21.772Z,52.55
2022-08-17T21:26:50.582Z,53.12
2022-08-17T21:29:31.359Z,53.23
2022-08-17T21:32:06.191Z,53.41
2022-08-17T21:34:42.536Z,53.61
2022-08-17T21:37:29.382Z,54.20
2022-08-17T21:40:10.092Z,54.07
2022-08-17T21:42:47.667Z,54.11
2022-08-17T21:45:32.263Z,53.92
2022-08-17T21:48:19.602Z,53.90
2022-08-17T21:51:12.038Z,53.78
2022-08-17T21:53:54.187Z,54.08
2022-08-17T21:56:32.008Z,54.27
2022-08-17T21:59:05.541Z,54.22
2022-08-17T22:01:42.943Z,54.35
2022-08-17T22:04:12.690Z,54.22
2022-08-17T22:06:52.349Z,54.26
2022-08-17T22:09:49.917Z,54.04
2022-08-17T22:12:20.348Z,54.50
2022-08-17T22:14:57.421Z,54.57
2022-08-17T22:17:28.205Z,54.75
2022-08-17T22:20:21.521Z,55.60
2022-08-17T22:23:07.146Z,55.29
2022-08-17T22:25:41.813Z,55.66
2022-08-17T22:28:12.097Z,55.41
2022-08-17T22:30:59.869Z,55.86
2022-08-17T22:33:51.621Z,55.80
2022-08-17T22:36:29.513Z,55.84
2022-08-17T22:39:26.309Z,55.82
2022-08-17T22:41:57.109Z,56.09
2022-08-17T22:44:31.875Z,56.24
2022-08-17T22:47:11.336Z,56.19
2022-08-17T22:50:00.991Z,56.39
2022-08-17T22:53:21.269Z,56.96
2022-08-17T22:56:16.226Z,56.21
2022-08-17T22:59:14.814Z,56.74
2022-08-17T23:01:45.327Z,56.86
2022-08-17T23:04:36.215Z,57.06
2022-08-17T23:07:03.125Z,56.56
2022-08-17T23:09:29.982Z,57.03
2022-08-17T23:11:58.656Z,57.25
2022-08-17T23:14:31.578Z,56.94
2022-08-17T23:16:59.341Z,56.81
2022-08-17T23:19:27.539Z,56.45
2022-08-17T23:21:56.471Z,57.01
2022-08-17T23:24:29.422Z,56.88
2022-08-17T23:26:58.051Z,56.59
2022-08-17T23:29:29.134Z,57.16
2022-08-17T23:31:59.748Z,56.66
2022-08-17T23:34:28.007Z,57.66
2022-08-17T23:36:55.955Z,57.70
2022-08-17T23:39:24.727Z,58.37
2022-08-17T23:41:58.054Z,58.70
2022-08-17T23:44:26.047Z,59.10
2022-08-17T23:46:53.743Z,58.80
2022-08-17T23:49:20.758Z,59.27
2022-08-17T23:51:48.862Z,59.45
2022-08-17T23:54:43.483Z,59.51
2022-08-17T23:57:13.648Z,59.26
2022-08-17T23:59:40.854Z,59.22
